アナディリ の空港の天気 - METARとTAF

アナディリ・ウゴルヌイ空港 ( UHMA / DYR ) - ロシア アナディリ
飛行場実況気象(Metar)
観測時間04/22 01:00 MAGT (04/21 14:00 UTC)
風向・風速北西 3m/s
視程10km以上
天気現象
少しの雲 雲底高度 1100m
気温-18℃
湿度77%
気圧1019hPa
METARUHMA 211400Z 32003MPS 9999 FEW036 M18/M21 Q1019 R01/60D NOSIG RMK END R01/33001MPS QFE760/1014
過去の天気等 Google飛行場航空写真 Wunderground天気予報

過去48時間のMETAR

飛行場予報(TAF)
発表時間: 4/22 00:41 MAGT (4/21 13:41 UTC)
予報対象時間: 22日2時 MAGT ~ 23日2時 MAGT
風向・風速北北西 5m/s
視程10km以上
全天の4割程度の雲 雲底高度 910m
22日2時 MAGT ~ 22日11時 MAGT に一時的に
風向・風速北北東 3m/s
視程1000m
天気現象もや
全天の4割程度の雲 雲底高度 150m
全天の8割程度の雲 雲底高度 760m
22日11時 MAGT ~ 22日23時 MAGT に一時的に
風向・風速北西 7m/s 瞬間風速 12m/s
視程5000m
天気現象弱い雪 もや
全天の4割程度の雲 雲底高度 150m
全天の8割程度の雲 雲底高度 610m
22日23時 MAGT ~ 23日2時 MAGT に一時的に
風向・風速北西 3m/s
TAF UHMA 211341Z 2115/2215 34005MPS 9999 SCT030
TEMPO 2115/2124 03003MPS 1000 BR SCT005 BKN025
TEMPO 2200/2212 32007G12MPS 5000 -SN BR SCT005 BKN020
TEMPO 2212/2215 31003MPS